sensor_id;sensor_type;location;lat;lon;timestamp;P1;durP1;ratioP1;P2;durP2;ratioP2
20697;SDS011;10508;50.956;4.640;2023-05-14T00:00:41;52.70;;;25.90;;
20697;SDS011;10508;50.956;4.640;2023-05-14T00:03:07;57.05;;;26.48;;
20697;SDS011;10508;50.956;4.640;2023-05-14T00:05:33;47.55;;;25.33;;
20697;SDS011;10508;50.956;4.640;2023-05-14T00:07:59;47.72;;;23.95;;
20697;SDS011;10508;50.956;4.640;2023-05-14T00:10:26;52.25;;;26.17;;
20697;SDS011;10508;50.956;4.640;2023-05-14T00:12:52;55.88;;;25.55;;
20697;SDS011;10508;50.956;4.640;2023-05-14T00:15:18;50.72;;;25.80;;
20697;SDS011;10508;50.956;4.640;2023-05-14T00:17:44;48.25;;;26.15;;
20697;SDS011;10508;50.956;4.640;2023-05-14T00:20:10;52.28;;;25.60;;
20697;SDS011;10508;50.956;4.640;2023-05-14T00:22:37;58.42;;;27.90;;
20697;SDS011;10508;50.956;4.640;2023-05-14T00:25:03;57.58;;;26.88;;
20697;SDS011;10508;50.956;4.640;2023-05-14T00:27:29;57.55;;;26.27;;
20697;SDS011;10508;50.956;4.640;2023-05-14T00:29:55;59.08;;;26.60;;
20697;SDS011;10508;50.956;4.640;2023-05-14T00:32:22;55.78;;;27.98;;
20697;SDS011;10508;50.956;4.640;2023-05-14T00:34:48;57.65;;;28.15;;
20697;SDS011;10508;50.956;4.640;2023-05-14T00:37:14;52.78;;;26.70;;
20697;SDS011;10508;50.956;4.640;2023-05-14T00:39:40;55.85;;;27.35;;
20697;SDS011;10508;50.956;4.640;2023-05-14T00:42:06;56.97;;;28.50;;
20697;SDS011;10508;50.956;4.640;2023-05-14T00:44:32;61.10;;;28.65;;
20697;SDS011;10508;50.956;4.640;2023-05-14T00:46:58;56.38;;;28.17;;
20697;SDS011;10508;50.956;4.640;2023-05-14T00:49:25;60.38;;;28.35;;
20697;SDS011;10508;50.956;4.640;2023-05-14T00:51:52;63.38;;;29.25;;
20697;SDS011;10508;50.956;4.640;2023-05-14T00:54:19;58.90;;;28.55;;
20697;SDS011;10508;50.956;4.640;2023-05-14T00:56:45;54.45;;;27.00;;
20697;SDS011;10508;50.956;4.640;2023-05-14T00:59:12;57.83;;;27.73;;
20697;SDS011;10508;50.956;4.640;2023-05-14T01:01:38;67.97;;;29.55;;
20697;SDS011;10508;50.956;4.640;2023-05-14T01:04:04;70.13;;;26.98;;
20697;SDS011;10508;50.956;4.640;2023-05-14T01:11:39;59.30;;;26.30;;
20697;SDS011;10508;50.956;4.640;2023-05-14T01:16:34;61.25;;;27.70;;
20697;SDS011;10508;50.956;4.640;2023-05-14T01:19:01;65.38;;;27.77;;
20697;SDS011;10508;50.956;4.640;2023-05-14T01:21:36;54.85;;;27.02;;
20697;SDS011;10508;50.956;4.640;2023-05-14T01:24:04;52.50;;;27.48;;
20697;SDS011;10508;50.956;4.640;2023-05-14T01:26:30;52.08;;;26.10;;
20697;SDS011;10508;50.956;4.640;2023-05-14T01:29:04;59.78;;;27.92;;
20697;SDS011;10508;50.956;4.640;2023-05-14T01:31:33;56.40;;;27.30;;
20697;SDS011;10508;50.956;4.640;2023-05-14T01:34:02;66.97;;;28.08;;
20697;SDS011;10508;50.956;4.640;2023-05-14T01:36:29;59.78;;;28.30;;
20697;SDS011;10508;50.956;4.640;2023-05-14T01:38:57;59.70;;;27.85;;
20697;SDS011;10508;50.956;4.640;2023-05-14T01:41:23;57.80;;;27.63;;
20697;SDS011;10508;50.956;4.640;2023-05-14T01:43:51;61.28;;;28.80;;
20697;SDS011;10508;50.956;4.640;2023-05-14T01:46:17;62.85;;;28.92;;
20697;SDS011;10508;50.956;4.640;2023-05-14T01:48:43;57.78;;;28.63;;
20697;SDS011;10508;50.956;4.640;2023-05-14T01:51:09;58.60;;;28.10;;
20697;SDS011;10508;50.956;4.640;2023-05-14T01:53:38;64.97;;;29.58;;
20697;SDS011;10508;50.956;4.640;2023-05-14T01:56:04;65.55;;;29.98;;
20697;SDS011;10508;50.956;4.640;2023-05-14T01:58:30;68.85;;;30.77;;
20697;SDS011;10508;50.956;4.640;2023-05-14T02:00:56;62.97;;;29.92;;
20697;SDS011;10508;50.956;4.640;2023-05-14T02:03:22;68.70;;;30.77;;
20697;SDS011;10508;50.956;4.640;2023-05-14T02:05:48;75.57;;;31.77;;
20697;SDS011;10508;50.956;4.640;2023-05-14T02:08:15;73.60;;;31.45;;
20697;SDS011;10508;50.956;4.640;2023-05-14T02:10:41;72.70;;;30.55;;
20697;SDS011;10508;50.956;4.640;2023-05-14T02:13:07;79.30;;;33.15;;
20697;SDS011;10508;50.956;4.640;2023-05-14T02:15:33;72.40;;;31.90;;
20697;SDS011;10508;50.956;4.640;2023-05-14T02:17:59;65.97;;;31.83;;
20697;SDS011;10508;50.956;4.640;2023-05-14T02:20:25;74.68;;;32.78;;
20697;SDS011;10508;50.956;4.640;2023-05-14T02:22:51;79.18;;;33.97;;
20697;SDS011;10508;50.956;4.640;2023-05-14T02:25:17;77.40;;;31.00;;
20697;SDS011;10508;50.956;4.640;2023-05-14T02:27:43;66.28;;;30.55;;
20697;SDS011;10508;50.956;4.640;2023-05-14T02:30:10;78.15;;;32.97;;
20697;SDS011;10508;50.956;4.640;2023-05-14T02:32:36;81.35;;;33.83;;
20697;SDS011;10508;50.956;4.640;2023-05-14T02:35:02;74.78;;;32.55;;
20697;SDS011;10508;50.956;4.640;2023-05-14T02:37:28;76.97;;;32.70;;
20697;SDS011;10508;50.956;4.640;2023-05-14T02:39:54;74.63;;;32.75;;
20697;SDS011;10508;50.956;4.640;2023-05-14T02:42:20;85.80;;;34.05;;
20697;SDS011;10508;50.956;4.640;2023-05-14T02:44:47;76.90;;;31.90;;
20697;SDS011;10508;50.956;4.640;2023-05-14T02:47:13;80.00;;;34.72;;
20697;SDS011;10508;50.956;4.640;2023-05-14T02:49:39;72.45;;;31.50;;
20697;SDS011;10508;50.956;4.640;2023-05-14T02:52:05;78.47;;;32.70;;
20697;SDS011;10508;50.956;4.640;2023-05-14T02:54:31;71.53;;;32.50;;
20697;SDS011;10508;50.956;4.640;2023-05-14T02:56:57;80.72;;;32.42;;
20697;SDS011;10508;50.956;4.640;2023-05-14T02:59:23;77.35;;;33.30;;
20697;SDS011;10508;50.956;4.640;2023-05-14T03:01:49;76.80;;;32.17;;
20697;SDS011;10508;50.956;4.640;2023-05-14T03:04:15;82.22;;;33.03;;
20697;SDS011;10508;50.956;4.640;2023-05-14T03:06:41;85.63;;;32.95;;
20697;SDS011;10508;50.956;4.640;2023-05-14T03:09:07;78.45;;;33.35;;
20697;SDS011;10508;50.956;4.640;2023-05-14T03:11:33;79.10;;;34.05;;
20697;SDS011;10508;50.956;4.640;2023-05-14T03:13:59;81.63;;;34.55;;
20697;SDS011;10508;50.956;4.640;2023-05-14T03:16:26;81.95;;;33.58;;
20697;SDS011;10508;50.956;4.640;2023-05-14T03:18:52;78.25;;;32.20;;
20697;SDS011;10508;50.956;4.640;2023-05-14T03:21:18;81.05;;;34.90;;
20697;SDS011;10508;50.956;4.640;2023-05-14T03:23:44;74.55;;;33.47;;
20697;SDS011;10508;50.956;4.640;2023-05-14T03:26:10;82.35;;;33.72;;
20697;SDS011;10508;50.956;4.640;2023-05-14T03:28:36;79.18;;;31.85;;
20697;SDS011;10508;50.956;4.640;2023-05-14T03:31:02;79.90;;;33.35;;
20697;SDS011;10508;50.956;4.640;2023-05-14T03:33:28;78.32;;;32.60;;
20697;SDS011;10508;50.956;4.640;2023-05-14T03:35:55;75.13;;;32.38;;
20697;SDS011;10508;50.956;4.640;2023-05-14T03:38:21;85.30;;;34.35;;
20697;SDS011;10508;50.956;4.640;2023-05-14T03:40:47;79.50;;;33.53;;
20697;SDS011;10508;50.956;4.640;2023-05-14T03:43:13;81.78;;;32.35;;
20697;SDS011;10508;50.956;4.640;2023-05-14T03:45:40;77.00;;;31.55;;
20697;SDS011;10508;50.956;4.640;2023-05-14T03:48:06;96.85;;;34.08;;
20697;SDS011;10508;50.956;4.640;2023-05-14T03:50:32;76.55;;;33.17;;
20697;SDS011;10508;50.956;4.640;2023-05-14T03:52:58;81.22;;;32.90;;
20697;SDS011;10508;50.956;4.640;2023-05-14T03:55:24;74.47;;;33.13;;
20697;SDS011;10508;50.956;4.640;2023-05-14T03:57:50;84.68;;;34.00;;
20697;SDS011;10508;50.956;4.640;2023-05-14T04:00:16;75.43;;;32.03;;
20697;SDS011;10508;50.956;4.640;2023-05-14T04:02:42;80.00;;;33.50;;
20697;SDS011;10508;50.956;4.640;2023-05-14T04:05:08;83.32;;;34.50;;
20697;SDS011;10508;50.956;4.640;2023-05-14T04:07:34;82.57;;;32.00;;
20697;SDS011;10508;50.956;4.640;2023-05-14T04:10:01;77.43;;;31.55;;
20697;SDS011;10508;50.956;4.640;2023-05-14T04:12:27;76.38;;;32.08;;
20697;SDS011;10508;50.956;4.640;2023-05-14T04:14:53;86.18;;;33.90;;
20697;SDS011;10508;50.956;4.640;2023-05-14T04:17:19;79.63;;;31.02;;
20697;SDS011;10508;50.956;4.640;2023-05-14T04:19:45;76.82;;;33.83;;
20697;SDS011;10508;50.956;4.640;2023-05-14T04:22:11;79.78;;;32.15;;
20697;SDS011;10508;50.956;4.640;2023-05-14T04:24:37;89.45;;;33.63;;
20697;SDS011;10508;50.956;4.640;2023-05-14T04:27:04;74.78;;;32.35;;
20697;SDS011;10508;50.956;4.640;2023-05-14T04:29:30;75.78;;;32.17;;
20697;SDS011;10508;50.956;4.640;2023-05-14T04:31:56;85.30;;;36.90;;
20697;SDS011;10508;50.956;4.640;2023-05-14T04:34:34;76.63;;;31.45;;
20697;SDS011;10508;50.956;4.640;2023-05-14T04:37:00;74.95;;;30.33;;
20697;SDS011;10508;50.956;4.640;2023-05-14T04:39:28;83.38;;;32.25;;
20697;SDS011;10508;50.956;4.640;2023-05-14T04:41:54;77.05;;;30.83;;
20697;SDS011;10508;50.956;4.640;2023-05-14T04:44:20;77.35;;;29.90;;
20697;SDS011;10508;50.956;4.640;2023-05-14T04:46:46;78.20;;;31.02;;
20697;SDS011;10508;50.956;4.640;2023-05-14T04:49:12;79.78;;;30.67;;
20697;SDS011;10508;50.956;4.640;2023-05-14T04:51:44;82.97;;;30.77;;
20697;SDS011;10508;50.956;4.640;2023-05-14T04:54:11;79.43;;;31.90;;
20697;SDS011;10508;50.956;4.640;2023-05-14T04:56:37;89.93;;;32.65;;
20697;SDS011;10508;50.956;4.640;2023-05-14T04:59:03;83.18;;;30.90;;
20697;SDS011;10508;50.956;4.640;2023-05-14T05:01:29;80.35;;;31.50;;
20697;SDS011;10508;50.956;4.640;2023-05-14T05:03:55;79.13;;;30.77;;
20697;SDS011;10508;50.956;4.640;2023-05-14T05:06:21;86.88;;;30.65;;
20697;SDS011;10508;50.956;4.640;2023-05-14T05:08:47;77.63;;;30.08;;
20697;SDS011;10508;50.956;4.640;2023-05-14T05:11:13;79.15;;;29.40;;
20697;SDS011;10508;50.956;4.640;2023-05-14T05:13:40;78.25;;;29.73;;
20697;SDS011;10508;50.956;4.640;2023-05-14T05:16:06;78.93;;;31.15;;
20697;SDS011;10508;50.956;4.640;2023-05-14T05:18:32;74.80;;;31.67;;
20697;SDS011;10508;50.956;4.640;2023-05-14T05:20:58;76.75;;;29.63;;
20697;SDS011;10508;50.956;4.640;2023-05-14T05:23:24;80.68;;;31.63;;
20697;SDS011;10508;50.956;4.640;2023-05-14T05:25:50;81.50;;;31.55;;
20697;SDS011;10508;50.956;4.640;2023-05-14T05:28:16;74.68;;;29.55;;
20697;SDS011;10508;50.956;4.640;2023-05-14T05:30:42;76.05;;;31.25;;
20697;SDS011;10508;50.956;4.640;2023-05-14T05:33:11;76.80;;;30.75;;
20697;SDS011;10508;50.956;4.640;2023-05-14T05:35:40;72.55;;;29.27;;
20697;SDS011;10508;50.956;4.640;2023-05-14T05:38:08;75.57;;;29.13;;
20697;SDS011;10508;50.956;4.640;2023-05-14T05:40:34;78.07;;;31.08;;
20697;SDS011;10508;50.956;4.640;2023-05-14T05:43:00;80.47;;;29.30;;
20697;SDS011;10508;50.956;4.640;2023-05-14T05:45:26;75.10;;;29.00;;
20697;SDS011;10508;50.956;4.640;2023-05-14T05:47:52;73.22;;;28.17;;
20697;SDS011;10508;50.956;4.640;2023-05-14T05:50:18;75.00;;;30.60;;
20697;SDS011;10508;50.956;4.640;2023-05-14T05:52:44;67.28;;;28.15;;
20697;SDS011;10508;50.956;4.640;2023-05-14T05:55:10;65.65;;;26.65;;
20697;SDS011;10508;50.956;4.640;2023-05-14T05:57:36;65.15;;;26.27;;
20697;SDS011;10508;50.956;4.640;2023-05-14T06:00:02;65.65;;;27.45;;
20697;SDS011;10508;50.956;4.640;2023-05-14T06:02:37;64.20;;;26.27;;
20697;SDS011;10508;50.956;4.640;2023-05-14T06:05:04;68.97;;;27.25;;
20697;SDS011;10508;50.956;4.640;2023-05-14T06:07:30;62.65;;;27.05;;
20697;SDS011;10508;50.956;4.640;2023-05-14T06:09:56;65.97;;;27.60;;
20697;SDS011;10508;50.956;4.640;2023-05-14T06:12:22;67.22;;;26.10;;
20697;SDS011;10508;50.956;4.640;2023-05-14T06:14:48;65.13;;;27.42;;
20697;SDS011;10508;50.956;4.640;2023-05-14T06:17:14;60.13;;;25.85;;
20697;SDS011;10508;50.956;4.640;2023-05-14T06:19:40;62.97;;;25.67;;
20697;SDS011;10508;50.956;4.640;2023-05-14T06:22:06;60.95;;;26.15;;
20697;SDS011;10508;50.956;4.640;2023-05-14T06:24:32;65.70;;;25.40;;
20697;SDS011;10508;50.956;4.640;2023-05-14T06:26:58;59.13;;;25.25;;
20697;SDS011;10508;50.956;4.640;2023-05-14T06:29:33;61.90;;;26.55;;
20697;SDS011;10508;50.956;4.640;2023-05-14T06:32:02;62.92;;;26.50;;
20697;SDS011;10508;50.956;4.640;2023-05-14T06:34:28;66.63;;;27.42;;
20697;SDS011;10508;50.956;4.640;2023-05-14T06:36:55;68.45;;;25.83;;
20697;SDS011;10508;50.956;4.640;2023-05-14T06:39:21;61.38;;;24.75;;
20697;SDS011;10508;50.956;4.640;2023-05-14T06:41:48;67.38;;;25.85;;
20697;SDS011;10508;50.956;4.640;2023-05-14T06:44:15;64.00;;;25.98;;
20697;SDS011;10508;50.956;4.640;2023-05-14T06:46:41;71.15;;;27.00;;
20697;SDS011;10508;50.956;4.640;2023-05-14T06:49:07;77.13;;;28.70;;
20697;SDS011;10508;50.956;4.640;2023-05-14T06:51:33;70.32;;;27.80;;
20697;SDS011;10508;50.956;4.640;2023-05-14T06:53:59;72.47;;;26.23;;
20697;SDS011;10508;50.956;4.640;2023-05-14T06:56:25;69.50;;;26.52;;
20697;SDS011;10508;50.956;4.640;2023-05-14T06:58:51;69.57;;;26.92;;
20697;SDS011;10508;50.956;4.640;2023-05-14T07:01:17;63.78;;;26.45;;
20697;SDS011;10508;50.956;4.640;2023-05-14T07:03:43;64.22;;;27.65;;
20697;SDS011;10508;50.956;4.640;2023-05-14T07:06:09;65.00;;;27.35;;
20697;SDS011;10508;50.956;4.640;2023-05-14T07:08:35;58.42;;;26.65;;
20697;SDS011;10508;50.956;4.640;2023-05-14T07:11:01;72.95;;;28.77;;
20697;SDS011;10508;50.956;4.640;2023-05-14T07:13:27;71.85;;;27.98;;
20697;SDS011;10508;50.956;4.640;2023-05-14T07:15:53;71.65;;;27.23;;
20697;SDS011;10508;50.956;4.640;2023-05-14T07:18:22;64.30;;;26.80;;
20697;SDS011;10508;50.956;4.640;2023-05-14T07:20:48;69.75;;;26.73;;
20697;SDS011;10508;50.956;4.640;2023-05-14T07:23:14;68.78;;;27.95;;
20697;SDS011;10508;50.956;4.640;2023-05-14T07:25:40;66.38;;;26.25;;
20697;SDS011;10508;50.956;4.640;2023-05-14T07:28:06;70.30;;;27.85;;
20697;SDS011;10508;50.956;4.640;2023-05-14T07:30:32;67.03;;;26.65;;
20697;SDS011;10508;50.956;4.640;2023-05-14T07:32:58;65.50;;;27.50;;
20697;SDS011;10508;50.956;4.640;2023-05-14T07:35:24;60.70;;;25.13;;
20697;SDS011;10508;50.956;4.640;2023-05-14T07:37:50;63.63;;;24.58;;
20697;SDS011;10508;50.956;4.640;2023-05-14T07:40:16;66.55;;;26.42;;
20697;SDS011;10508;50.956;4.640;2023-05-14T07:42:42;57.67;;;24.67;;
20697;SDS011;10508;50.956;4.640;2023-05-14T07:45:08;72.38;;;26.75;;
20697;SDS011;10508;50.956;4.640;2023-05-14T07:47:35;60.67;;;23.52;;
20697;SDS011;10508;50.956;4.640;2023-05-14T07:50:01;61.25;;;24.77;;
20697;SDS011;10508;50.956;4.640;2023-05-14T07:52:27;61.85;;;25.60;;
20697;SDS011;10508;50.956;4.640;2023-05-14T07:54:53;59.83;;;25.70;;
20697;SDS011;10508;50.956;4.640;2023-05-14T07:57:19;61.40;;;26.50;;
20697;SDS011;10508;50.956;4.640;2023-05-14T07:59:46;62.83;;;25.30;;
20697;SDS011;10508;50.956;4.640;2023-05-14T08:02:12;60.92;;;25.50;;
20697;SDS011;10508;50.956;4.640;2023-05-14T08:04:40;60.55;;;26.10;;
20697;SDS011;10508;50.956;4.640;2023-05-14T08:07:06;60.45;;;27.05;;
20697;SDS011;10508;50.956;4.640;2023-05-14T08:09:32;62.22;;;26.42;;
20697;SDS011;10508;50.956;4.640;2023-05-14T08:11:58;59.53;;;27.23;;
20697;SDS011;10508;50.956;4.640;2023-05-14T08:14:25;66.57;;;27.33;;
20697;SDS011;10508;50.956;4.640;2023-05-14T08:16:51;67.25;;;27.73;;
20697;SDS011;10508;50.956;4.640;2023-05-14T08:19:17;64.05;;;26.67;;
20697;SDS011;10508;50.956;4.640;2023-05-14T08:21:43;56.97;;;26.35;;
20697;SDS011;10508;50.956;4.640;2023-05-14T08:24:09;61.40;;;28.65;;
20697;SDS011;10508;50.956;4.640;2023-05-14T08:26:35;60.38;;;27.20;;
20697;SDS011;10508;50.956;4.640;2023-05-14T08:29:02;61.00;;;28.42;;
20697;SDS011;10508;50.956;4.640;2023-05-14T08:31:28;62.92;;;26.52;;
20697;SDS011;10508;50.956;4.640;2023-05-14T08:33:55;53.10;;;24.60;;
20697;SDS011;10508;50.956;4.640;2023-05-14T08:36:21;56.80;;;25.80;;
20697;SDS011;10508;50.956;4.640;2023-05-14T08:38:47;62.15;;;25.30;;
20697;SDS011;10508;50.956;4.640;2023-05-14T08:41:14;62.42;;;26.58;;
20697;SDS011;10508;50.956;4.640;2023-05-14T08:46:06;52.45;;;25.80;;
20697;SDS011;10508;50.956;4.640;2023-05-14T08:48:33;53.65;;;25.98;;
20697;SDS011;10508;50.956;4.640;2023-05-14T08:51:00;55.50;;;24.30;;
20697;SDS011;10508;50.956;4.640;2023-05-14T08:53:26;54.53;;;25.65;;
20697;SDS011;10508;50.956;4.640;2023-05-14T08:55:52;54.25;;;25.98;;
20697;SDS011;10508;50.956;4.640;2023-05-14T08:58:18;53.42;;;25.23;;
20697;SDS011;10508;50.956;4.640;2023-05-14T09:00:44;59.38;;;27.05;;
20697;SDS011;10508;50.956;4.640;2023-05-14T09:03:10;58.33;;;25.00;;
20697;SDS011;10508;50.956;4.640;2023-05-14T09:05:37;63.67;;;27.88;;
20697;SDS011;10508;50.956;4.640;2023-05-14T09:08:03;54.47;;;26.23;;
20697;SDS011;10508;50.956;4.640;2023-05-14T09:10:30;49.30;;;25.25;;
20697;SDS011;10508;50.956;4.640;2023-05-14T09:12:56;53.78;;;25.60;;
20697;SDS011;10508;50.956;4.640;2023-05-14T09:15:22;51.65;;;24.75;;
20697;SDS011;10508;50.956;4.640;2023-05-14T09:17:51;47.00;;;24.58;;
20697;SDS011;10508;50.956;4.640;2023-05-14T09:20:17;52.60;;;25.42;;
20697;SDS011;10508;50.956;4.640;2023-05-14T09:22:44;49.63;;;23.60;;
20697;SDS011;10508;50.956;4.640;2023-05-14T09:25:11;53.67;;;26.05;;
20697;SDS011;10508;50.956;4.640;2023-05-14T09:27:37;51.08;;;24.95;;
20697;SDS011;10508;50.956;4.640;2023-05-14T09:30:12;51.25;;;25.92;;
20697;SDS011;10508;50.956;4.640;2023-05-14T09:32:39;50.10;;;24.00;;
20697;SDS011;10508;50.956;4.640;2023-05-14T09:35:10;46.42;;;24.08;;
20697;SDS011;10508;50.956;4.640;2023-05-14T09:37:36;45.13;;;23.30;;
20697;SDS011;10508;50.956;4.640;2023-05-14T09:40:06;47.05;;;23.67;;
20697;SDS011;10508;50.956;4.640;2023-05-14T09:42:33;46.35;;;24.02;;
20697;SDS011;10508;50.956;4.640;2023-05-14T09:44:59;49.35;;;24.13;;
20697;SDS011;10508;50.956;4.640;2023-05-14T09:47:25;45.40;;;23.48;;
20697;SDS011;10508;50.956;4.640;2023-05-14T09:49:51;45.15;;;23.60;;
20697;SDS011;10508;50.956;4.640;2023-05-14T09:52:18;46.40;;;23.05;;
20697;SDS011;10508;50.956;4.640;2023-05-14T09:54:45;44.88;;;24.23;;
20697;SDS011;10508;50.956;4.640;2023-05-14T09:57:11;44.08;;;22.55;;
20697;SDS011;10508;50.956;4.640;2023-05-14T09:59:37;45.63;;;24.50;;
20697;SDS011;10508;50.956;4.640;2023-05-14T10:02:03;49.95;;;24.48;;
20697;SDS011;10508;50.956;4.640;2023-05-14T10:06:56;46.67;;;23.77;;
20697;SDS011;10508;50.956;4.640;2023-05-14T10:09:23;42.80;;;23.42;;
20697;SDS011;10508;50.956;4.640;2023-05-14T10:11:52;45.67;;;24.02;;
20697;SDS011;10508;50.956;4.640;2023-05-14T10:14:32;44.55;;;23.88;;
20697;SDS011;10508;50.956;4.640;2023-05-14T10:17:00;42.55;;;22.88;;
20697;SDS011;10508;50.956;4.640;2023-05-14T10:19:27;44.05;;;22.55;;
20697;SDS011;10508;50.956;4.640;2023-05-14T10:21:56;43.63;;;22.48;;
20697;SDS011;10508;50.956;4.640;2023-05-14T10:24:24;41.28;;;22.30;;
20697;SDS011;10508;50.956;4.640;2023-05-14T10:26:50;42.75;;;22.15;;
20697;SDS011;10508;50.956;4.640;2023-05-14T10:29:17;43.00;;;23.45;;
20697;SDS011;10508;50.956;4.640;2023-05-14T10:31:52;40.20;;;22.55;;
20697;SDS011;10508;50.956;4.640;2023-05-14T10:34:35;35.00;;;20.83;;
20697;SDS011;10508;50.956;4.640;2023-05-14T10:37:02;41.30;;;21.85;;
20697;SDS011;10508;50.956;4.640;2023-05-14T10:42:14;40.38;;;22.15;;
20697;SDS011;10508;50.956;4.640;2023-05-14T10:44:46;39.85;;;21.50;;
20697;SDS011;10508;50.956;4.640;2023-05-14T10:47:12;39.92;;;21.98;;
20697;SDS011;10508;50.956;4.640;2023-05-14T10:49:40;34.92;;;21.00;;
20697;SDS011;10508;50.956;4.640;2023-05-14T10:52:07;34.28;;;20.23;;
20697;SDS011;10508;50.956;4.640;2023-05-14T10:54:36;39.67;;;21.88;;
20697;SDS011;10508;50.956;4.640;2023-05-14T10:57:02;35.88;;;21.60;;
20697;SDS011;10508;50.956;4.640;2023-05-14T10:59:28;36.47;;;21.67;;
20697;SDS011;10508;50.956;4.640;2023-05-14T11:01:58;40.50;;;22.08;;
20697;SDS011;10508;50.956;4.640;2023-05-14T11:04:24;37.13;;;21.50;;
20697;SDS011;10508;50.956;4.640;2023-05-14T11:06:50;37.75;;;21.30;;
20697;SDS011;10508;50.956;4.640;2023-05-14T11:09:18;35.70;;;21.23;;
20697;SDS011;10508;50.956;4.640;2023-05-14T11:11:45;40.10;;;22.40;;
20697;SDS011;10508;50.956;4.640;2023-05-14T11:14:12;38.78;;;21.25;;
20697;SDS011;10508;50.956;4.640;2023-05-14T11:16:38;36.90;;;20.30;;
20697;SDS011;10508;50.956;4.640;2023-05-14T11:19:05;39.35;;;22.40;;
20697;SDS011;10508;50.956;4.640;2023-05-14T11:21:31;35.05;;;20.05;;
20697;SDS011;10508;50.956;4.640;2023-05-14T11:24:00;34.88;;;20.83;;
20697;SDS011;10508;50.956;4.640;2023-05-14T11:26:30;32.65;;;19.38;;
20697;SDS011;10508;50.956;4.640;2023-05-14T11:28:56;37.15;;;21.95;;
20697;SDS011;10508;50.956;4.640;2023-05-14T11:31:22;40.10;;;22.42;;
20697;SDS011;10508;50.956;4.640;2023-05-14T11:33:50;39.85;;;21.80;;
20697;SDS011;10508;50.956;4.640;2023-05-14T11:36:17;36.92;;;20.48;;
20697;SDS011;10508;50.956;4.640;2023-05-14T11:38:46;42.72;;;21.38;;
20697;SDS011;10508;50.956;4.640;2023-05-14T11:41:13;36.65;;;20.90;;
20697;SDS011;10508;50.956;4.640;2023-05-14T11:43:40;43.03;;;21.13;;
20697;SDS011;10508;50.956;4.640;2023-05-14T11:46:06;36.40;;;19.90;;
20697;SDS011;10508;50.956;4.640;2023-05-14T11:48:32;32.85;;;20.08;;
20697;SDS011;10508;50.956;4.640;2023-05-14T11:50:58;38.92;;;20.77;;
20697;SDS011;10508;50.956;4.640;2023-05-14T11:53:29;34.03;;;19.75;;
20697;SDS011;10508;50.956;4.640;2023-05-14T11:55:55;41.30;;;21.27;;
20697;SDS011;10508;50.956;4.640;2023-05-14T11:58:22;36.20;;;19.55;;
20697;SDS011;10508;50.956;4.640;2023-05-14T12:00:48;39.30;;;21.27;;
20697;SDS011;10508;50.956;4.640;2023-05-14T12:03:15;34.95;;;20.08;;
20697;SDS011;10508;50.956;4.640;2023-05-14T12:05:53;35.40;;;20.08;;
20697;SDS011;10508;50.956;4.640;2023-05-14T12:08:22;34.67;;;19.90;;
20697;SDS011;10508;50.956;4.640;2023-05-14T12:10:51;36.30;;;19.98;;
20697;SDS011;10508;50.956;4.640;2023-05-14T12:13:17;30.63;;;19.25;;
20697;SDS011;10508;50.956;4.640;2023-05-14T12:15:52;37.90;;;20.80;;
20697;SDS011;10508;50.956;4.640;2023-05-14T12:18:19;34.17;;;19.50;;
20697;SDS011;10508;50.956;4.640;2023-05-14T12:20:46;46.15;;;21.27;;
20697;SDS011;10508;50.956;4.640;2023-05-14T12:23:12;32.28;;;18.45;;
20697;SDS011;10508;50.956;4.640;2023-05-14T12:25:38;32.60;;;18.63;;
20697;SDS011;10508;50.956;4.640;2023-05-14T12:28:14;32.65;;;17.67;;
20697;SDS011;10508;50.956;4.640;2023-05-14T12:30:40;33.53;;;18.15;;
20697;SDS011;10508;50.956;4.640;2023-05-14T12:33:06;42.88;;;19.05;;
20697;SDS011;10508;50.956;4.640;2023-05-14T12:35:32;35.70;;;18.40;;
20697;SDS011;10508;50.956;4.640;2023-05-14T12:37:58;35.78;;;19.38;;
20697;SDS011;10508;50.956;4.640;2023-05-14T12:40:24;33.65;;;18.92;;
20697;SDS011;10508;50.956;4.640;2023-05-14T12:42:50;30.08;;;17.73;;
20697;SDS011;10508;50.956;4.640;2023-05-14T12:45:16;37.92;;;20.05;;
20697;SDS011;10508;50.956;4.640;2023-05-14T12:47:42;37.15;;;18.33;;
20697;SDS011;10508;50.956;4.640;2023-05-14T12:50:08;30.50;;;18.25;;
20697;SDS011;10508;50.956;4.640;2023-05-14T12:52:34;34.30;;;18.67;;
20697;SDS011;10508;50.956;4.640;2023-05-14T12:55:00;34.58;;;19.45;;
20697;SDS011;10508;50.956;4.640;2023-05-14T12:57:26;30.83;;;17.95;;
20697;SDS011;10508;50.956;4.640;2023-05-14T12:59:54;29.33;;;17.60;;
20697;SDS011;10508;50.956;4.640;2023-05-14T13:02:20;32.85;;;16.92;;
20697;SDS011;10508;50.956;4.640;2023-05-14T13:04:46;32.15;;;17.27;;
20697;SDS011;10508;50.956;4.640;2023-05-14T13:07:12;28.83;;;16.65;;
20697;SDS011;10508;50.956;4.640;2023-05-14T13:09:38;28.58;;;16.75;;
20697;SDS011;10508;50.956;4.640;2023-05-14T13:12:04;25.58;;;14.93;;
20697;SDS011;10508;50.956;4.640;2023-05-14T13:14:30;32.55;;;16.63;;
20697;SDS011;10508;50.956;4.640;2023-05-14T13:16:56;26.77;;;15.88;;
20697;SDS011;10508;50.956;4.640;2023-05-14T13:19:22;28.20;;;16.13;;
20697;SDS011;10508;50.956;4.640;2023-05-14T13:21:48;26.45;;;16.20;;
20697;SDS011;10508;50.956;4.640;2023-05-14T13:24:14;26.80;;;15.88;;
20697;SDS011;10508;50.956;4.640;2023-05-14T13:26:41;26.10;;;14.43;;
20697;SDS011;10508;50.956;4.640;2023-05-14T13:29:08;24.80;;;15.05;;
20697;SDS011;10508;50.956;4.640;2023-05-14T13:31:35;23.85;;;14.10;;
20697;SDS011;10508;50.956;4.640;2023-05-14T13:34:01;26.73;;;15.10;;
20697;SDS011;10508;50.956;4.640;2023-05-14T13:36:27;23.38;;;13.18;;
20697;SDS011;10508;50.956;4.640;2023-05-14T13:38:55;23.92;;;14.00;;
20697;SDS011;10508;50.956;4.640;2023-05-14T13:41:21;27.25;;;14.25;;
20697;SDS011;10508;50.956;4.640;2023-05-14T13:43:47;25.95;;;14.68;;
20697;SDS011;10508;50.956;4.640;2023-05-14T13:46:13;20.25;;;13.55;;
20697;SDS011;10508;50.956;4.640;2023-05-14T13:48:39;24.98;;;13.65;;
20697;SDS011;10508;50.956;4.640;2023-05-14T13:51:05;21.90;;;12.50;;
20697;SDS011;10508;50.956;4.640;2023-05-14T13:53:31;18.70;;;11.30;;
20697;SDS011;10508;50.956;4.640;2023-05-14T13:55:57;19.35;;;12.13;;
20697;SDS011;10508;50.956;4.640;2023-05-14T13:58:25;20.60;;;12.40;;
20697;SDS011;10508;50.956;4.640;2023-05-14T14:00:52;18.25;;;11.45;;
20697;SDS011;10508;50.956;4.640;2023-05-14T14:03:18;22.55;;;12.75;;
20697;SDS011;10508;50.956;4.640;2023-05-14T14:05:44;21.88;;;11.90;;
20697;SDS011;10508;50.956;4.640;2023-05-14T14:08:10;17.27;;;11.32;;
20697;SDS011;10508;50.956;4.640;2023-05-14T14:10:37;17.42;;;11.27;;
20697;SDS011;10508;50.956;4.640;2023-05-14T14:13:06;19.60;;;11.30;;
20697;SDS011;10508;50.956;4.640;2023-05-14T14:15:32;17.05;;;11.02;;
20697;SDS011;10508;50.956;4.640;2023-05-14T14:17:58;23.98;;;11.50;;
20697;SDS011;10508;50.956;4.640;2023-05-14T14:20:24;19.95;;;11.20;;
20697;SDS011;10508;50.956;4.640;2023-05-14T14:22:50;18.67;;;10.25;;
20697;SDS011;10508;50.956;4.640;2023-05-14T14:25:17;18.85;;;9.70;;
20697;SDS011;10508;50.956;4.640;2023-05-14T14:27:43;18.67;;;10.57;;
20697;SDS011;10508;50.956;4.640;2023-05-14T14:30:10;16.60;;;10.52;;
20697;SDS011;10508;50.956;4.640;2023-05-14T14:32:45;17.63;;;10.23;;